createdAt,value
2022-08-16T00:01:21.987Z,4.88
2022-08-16T00:03:51.862Z,6.28
2022-08-16T00:06:21.158Z,4.00
2022-08-16T00:08:48.039Z,4.10
2022-08-16T00:11:16.642Z,3.67
2022-08-16T00:13:53.101Z,3.83
2022-08-16T00:17:11.583Z,4.00
2022-08-16T00:19:15.465Z,3.63
2022-08-16T00:21:43.138Z,3.95
2022-08-16T00:24:11.434Z,3.92
2022-08-16T00:26:44.415Z,4.22
2022-08-16T00:29:15.377Z,4.78
2022-08-16T00:31:59.883Z,3.85
2022-08-16T00:34:43.569Z,3.80
2022-08-16T00:37:17.025Z,4.28
2022-08-16T00:39:47.108Z,4.88
2022-08-16T00:42:29.626Z,4.75
2022-08-16T00:45:06.411Z,4.55
2022-08-16T00:47:37.099Z,4.18
2022-08-16T00:50:11.329Z,4.07
2022-08-16T00:52:50.482Z,4.50
2022-08-16T00:55:20.223Z,4.00
2022-08-16T00:57:59.939Z,4.55
2022-08-16T01:00:29.262Z,4.10
2022-08-16T01:02:58.294Z,3.78
2022-08-16T01:05:25.562Z,4.18
2022-08-16T01:07:53.934Z,3.85
2022-08-16T01:10:32.574Z,4.28
2022-08-16T01:13:15.841Z,4.28
2022-08-16T01:15:58.838Z,4.55
2022-08-16T01:18:40.784Z,4.65
2022-08-16T01:21:22.508Z,4.50
2022-08-16T01:24:52.726Z,4.40
2022-08-16T01:27:29.213Z,4.55
2022-08-16T01:30:19.617Z,4.25
2022-08-16T01:33:02.766Z,4.32
2022-08-16T01:35:47.465Z,4.75
2022-08-16T01:38:36.687Z,4.72
2022-08-16T01:41:08.642Z,4.13
2022-08-16T01:43:37.672Z,4.25
2022-08-16T01:46:30.033Z,5.18
2022-08-16T01:49:01.981Z,4.85
2022-08-16T01:51:29.590Z,4.13
2022-08-16T01:53:56.510Z,3.72
2022-08-16T01:56:24.843Z,4.75
2022-08-16T01:58:55.035Z,4.13
2022-08-16T02:01:23.041Z,4.20
2022-08-16T02:03:53.128Z,4.38
2022-08-16T02:06:34.640Z,3.85
2022-08-16T02:09:07.230Z,4.32
2022-08-16T02:11:47.424Z,4.38
2022-08-16T02:14:21.376Z,4.25
2022-08-16T02:16:50.032Z,4.40
2022-08-16T02:19:21.331Z,3.92
2022-08-16T02:22:08.807Z,4.80
2022-08-16T02:24:45.839Z,4.43
2022-08-16T02:27:13.617Z,4.28
2022-08-16T02:29:42.833Z,4.10
2022-08-16T02:32:50.506Z,4.55
2022-08-16T02:34:58.355Z,4.53
2022-08-16T02:37:24.910Z,4.47
2022-08-16T02:40:16.319Z,4.22
2022-08-16T02:42:50.682Z,4.78
2022-08-16T02:45:20.451Z,3.78
2022-08-16T02:48:00.995Z,4.45
2022-08-16T02:50:55.332Z,4.50
2022-08-16T02:53:25.992Z,4.53
2022-08-16T02:55:53.638Z,5.03
2022-08-16T02:58:25.188Z,3.90
2022-08-16T03:00:55.942Z,4.03
2022-08-16T03:03:25.121Z,4.25
2022-08-16T03:05:53.076Z,4.45
2022-08-16T03:08:49.863Z,4.45
2022-08-16T03:11:17.756Z,3.97
2022-08-16T03:13:56.728Z,4.47
2022-08-16T03:16:36.632Z,4.65
2022-08-16T03:19:06.806Z,4.82
2022-08-16T03:21:37.553Z,4.53
2022-08-16T03:24:29.300Z,4.60
2022-08-16T03:26:53.344Z,4.03
2022-08-16T03:29:27.273Z,4.63
2022-08-16T03:31:57.403Z,4.50
2022-08-16T03:34:26.318Z,4.82
2022-08-16T03:36:53.394Z,4.50
2022-08-16T03:39:20.657Z,4.50
2022-08-16T03:41:50.109Z,4.25
2022-08-16T03:44:43.465Z,4.50
2022-08-16T03:47:10.382Z,4.70
2022-08-16T03:49:37.554Z,4.38
2022-08-16T03:52:05.964Z,4.45
2022-08-16T03:54:32.784Z,4.90
2022-08-16T03:57:05.081Z,3.92
2022-08-16T03:59:32.299Z,4.47
2022-08-16T04:02:01.262Z,4.60
2022-08-16T04:04:32.311Z,5.28
2022-08-16T04:07:02.866Z,4.10
2022-08-16T04:09:35.640Z,4.90
2022-08-16T04:12:11.389Z,4.68
2022-08-16T04:14:53.139Z,4.97
2022-08-16T04:17:20.994Z,5.00
2022-08-16T04:19:47.663Z,4.53
2022-08-16T04:22:19.571Z,4.72
2022-08-16T04:24:55.081Z,5.63
2022-08-16T04:27:24.646Z,4.88
2022-08-16T04:30:03.234Z,4.93
2022-08-16T04:32:30.717Z,4.78
2022-08-16T04:34:57.269Z,5.13
2022-08-16T04:37:26.290Z,4.60
2022-08-16T04:39:55.589Z,4.53
2022-08-16T04:42:25.798Z,4.85
2022-08-16T04:44:58.785Z,5.45
2022-08-16T04:47:35.431Z,5.22
2022-08-16T04:50:24.067Z,4.78
2022-08-16T04:52:57.899Z,4.85
2022-08-16T04:55:31.869Z,4.80
2022-08-16T04:58:45.225Z,4.63
2022-08-16T05:00:53.172Z,5.00
2022-08-16T05:03:20.929Z,4.97
2022-08-16T05:05:59.154Z,5.07
2022-08-16T05:08:31.717Z,4.60
2022-08-16T05:11:03.696Z,4.00
2022-08-16T05:13:41.176Z,4.80
2022-08-16T05:16:20.082Z,5.25
2022-08-16T05:18:50.529Z,4.97
2022-08-16T05:21:17.525Z,5.75
2022-08-16T05:23:55.877Z,5.50
2022-08-16T05:26:29.560Z,4.35
2022-08-16T05:29:03.685Z,5.60
2022-08-16T05:31:31.575Z,4.65
2022-08-16T05:34:03.301Z,4.57
2022-08-16T05:36:34.057Z,5.03
2022-08-16T05:39:05.982Z,5.78
2022-08-16T05:41:33.064Z,5.10
2022-08-16T05:44:23.279Z,4.90
2022-08-16T05:46:57.331Z,5.88
2022-08-16T05:49:39.516Z,6.00
2022-08-16T05:52:13.536Z,5.13
2022-08-16T05:54:47.454Z,5.20
2022-08-16T05:57:19.279Z,5.18
2022-08-16T05:59:50.507Z,4.80
2022-08-16T06:02:28.965Z,4.80
2022-08-16T06:04:55.829Z,4.90
2022-08-16T06:07:24.369Z,4.95
2022-08-16T06:09:52.703Z,4.53
2022-08-16T06:12:27.982Z,4.25
2022-08-16T06:14:59.136Z,4.93
2022-08-16T06:17:42.532Z,4.40
2022-08-16T06:20:25.476Z,5.57
2022-08-16T06:23:11.764Z,5.70
2022-08-16T06:25:44.729Z,4.88
2022-08-16T06:28:34.757Z,4.57
2022-08-16T06:31:02.754Z,5.10
2022-08-16T06:33:41.569Z,4.85
2022-08-16T06:36:11.797Z,4.80
2022-08-16T06:38:55.506Z,5.47
2022-08-16T06:41:23.045Z,5.05
2022-08-16T06:43:51.319Z,5.32
2022-08-16T06:46:34.068Z,5.50
2022-08-16T06:49:06.936Z,5.88
2022-08-16T06:51:46.626Z,5.22
2022-08-16T06:54:15.601Z,4.53
2022-08-16T06:56:42.640Z,5.35
2022-08-16T06:59:10.605Z,4.38
2022-08-16T07:01:43.151Z,4.55
2022-08-16T07:04:12.119Z,5.57
2022-08-16T07:06:43.283Z,4.65
2022-08-16T07:09:11.325Z,4.78
2022-08-16T07:11:48.027Z,4.75
2022-08-16T07:14:24.491Z,4.75
2022-08-16T07:16:55.230Z,5.60
2022-08-16T07:19:21.794Z,4.68
2022-08-16T07:22:37.834Z,10.23
2022-08-16T07:24:54.950Z,6.65
2022-08-16T07:27:21.951Z,6.30
2022-08-16T07:29:51.431Z,6.57
2022-08-16T07:32:29.287Z,6.03
2022-08-16T07:34:56.539Z,7.65
2022-08-16T07:37:24.104Z,6.80
2022-08-16T07:39:51.113Z,6.75
2022-08-16T07:42:28.236Z,6.28
2022-08-16T07:45:01.596Z,6.53
2022-08-16T07:47:31.540Z,7.07
2022-08-16T07:49:59.474Z,6.60
2022-08-16T07:52:29.799Z,6.53
2022-08-16T07:54:57.781Z,6.68
2022-08-16T07:57:24.996Z,6.65
2022-08-16T07:59:51.874Z,6.47
2022-08-16T08:02:20.240Z,6.18
2022-08-16T08:04:47.493Z,6.30
2022-08-16T08:07:16.349Z,6.15
2022-08-16T08:09:44.228Z,6.05
2022-08-16T08:12:32.053Z,5.90
2022-08-16T08:15:04.608Z,5.88
2022-08-16T08:17:42.946Z,5.95
2022-08-16T08:20:20.830Z,6.22
2022-08-16T08:23:01.158Z,6.70
2022-08-16T08:25:54.403Z,6.40
2022-08-16T08:28:20.028Z,5.88
2022-08-16T08:30:51.738Z,5.78
2022-08-16T08:33:28.710Z,5.38
2022-08-16T08:36:01.159Z,5.82
2022-08-16T08:38:45.020Z,5.55
2022-08-16T08:41:13.402Z,5.60
2022-08-16T08:43:41.657Z,5.70
2022-08-16T08:46:12.475Z,5.30
2022-08-16T08:48:45.851Z,5.55
2022-08-16T08:51:35.680Z,5.70
2022-08-16T08:54:09.371Z,6.32
2022-08-16T08:56:37.783Z,5.85
2022-08-16T08:59:19.789Z,6.30
2022-08-16T09:01:57.349Z,6.63
2022-08-16T09:04:26.596Z,5.85
2022-08-16T09:06:53.950Z,5.65
2022-08-16T09:09:21.250Z,5.53
2022-08-16T09:11:53.554Z,5.28
2022-08-16T09:14:32.291Z,5.15
2022-08-16T09:17:02.771Z,5.72
2022-08-16T09:19:34.187Z,5.68
2022-08-16T09:22:02.145Z,5.57
2022-08-16T09:24:47.168Z,5.78
2022-08-16T09:27:16.400Z,4.85
2022-08-16T09:29:45.254Z,5.25
2022-08-16T09:32:28.436Z,5.50
2022-08-16T09:34:58.383Z,5.20
2022-08-16T09:37:29.766Z,4.95
2022-08-16T09:55:26.018Z,5.05
2022-08-16T09:58:00.549Z,5.10
2022-08-16T10:00:43.993Z,4.50
2022-08-16T10:03:11.978Z,4.25
2022-08-16T10:05:39.068Z,4.70
2022-08-16T10:08:25.336Z,4.70
2022-08-16T10:11:12.719Z,4.13
2022-08-16T10:13:41.584Z,4.68
2022-08-16T10:19:00.209Z,4.15
2022-08-16T10:21:29.122Z,4.20
2022-08-16T10:23:58.578Z,3.72
2022-08-16T10:27:18.899Z,4.78
2022-08-16T10:29:12.199Z,4.07
2022-08-16T10:31:53.731Z,4.28
2022-08-16T10:34:31.773Z,3.83
2022-08-16T10:37:00.741Z,4.60
2022-08-16T10:39:40.845Z,4.13
2022-08-16T10:42:10.329Z,4.40
2022-08-16T10:44:40.270Z,4.78
2022-08-16T10:47:09.604Z,4.38
2022-08-16T10:49:39.112Z,3.88
2022-08-16T10:52:19.047Z,3.92
2022-08-16T10:57:36.303Z,4.03
2022-08-16T11:00:22.305Z,4.35
2022-08-16T11:02:58.249Z,4.10
2022-08-16T11:05:58.666Z,4.00
2022-08-16T11:08:16.325Z,4.05
2022-08-16T11:11:04.846Z,4.03
2022-08-16T11:16:27.915Z,4.15
2022-08-16T11:19:12.638Z,4.30
2022-08-16T11:24:39.838Z,4.45
2022-08-16T11:27:23.239Z,3.85
2022-08-16T11:29:55.088Z,4.35
2022-08-16T11:32:32.418Z,4.00
2022-08-16T11:35:10.472Z,4.22
2022-08-16T11:40:44.177Z,4.03
2022-08-16T11:43:11.391Z,4.07
2022-08-16T11:45:38.402Z,4.22
2022-08-16T11:48:06.287Z,3.75
2022-08-16T11:50:33.751Z,3.90
2022-08-16T11:53:08.300Z,4.25
2022-08-16T11:55:38.144Z,4.28
2022-08-16T11:58:06.628Z,4.45
2022-08-16T12:00:51.124Z,4.38
2022-08-16T12:03:23.856Z,4.32
2022-08-16T12:05:56.491Z,9.82
2022-08-16T12:08:25.931Z,6.57
2022-08-16T12:10:54.259Z,4.53
2022-08-16T12:13:26.368Z,4.03
2022-08-16T12:15:53.154Z,4.25
2022-08-16T12:18:20.885Z,4.20
2022-08-16T12:20:52.033Z,6.03
2022-08-16T12:23:21.988Z,3.85
2022-08-16T12:25:48.668Z,4.25
2022-08-16T12:28:25.553Z,3.88
2022-08-16T12:31:04.659Z,4.40
2022-08-16T12:33:32.375Z,3.90
2022-08-16T12:36:10.103Z,3.65
2022-08-16T12:38:46.717Z,4.40
2022-08-16T12:41:15.920Z,4.05
2022-08-16T12:43:52.691Z,4.15
2022-08-16T12:46:24.672Z,3.92
2022-08-16T12:48:58.313Z,4.47
2022-08-16T12:51:57.603Z,5.30
2022-08-16T12:54:19.480Z,4.07
2022-08-16T12:56:47.459Z,4.47
2022-08-16T12:59:31.167Z,4.25
2022-08-16T13:02:03.950Z,4.28
2022-08-16T13:04:34.063Z,4.00
2022-08-16T13:07:04.712Z,8.45
2022-08-16T13:09:42.447Z,5.57
2022-08-16T13:12:19.530Z,5.75
2022-08-16T13:14:47.832Z,4.32
2022-08-16T13:17:23.963Z,4.30
2022-08-16T13:20:10.994Z,4.13
2022-08-16T13:22:41.763Z,3.90
2022-08-16T13:25:10.152Z,4.22
2022-08-16T13:28:01.732Z,4.90
2022-08-16T13:30:36.553Z,4.55
2022-08-16T13:33:10.758Z,4.30
2022-08-16T13:35:42.671Z,4.32
2022-08-16T13:38:10.356Z,4.55
2022-08-16T13:40:49.805Z,4.07
2022-08-16T13:43:22.901Z,5.82
2022-08-16T13:45:50.477Z,3.83
2022-08-16T13:48:24.922Z,4.63
2022-08-16T13:51:02.467Z,3.97
2022-08-16T13:53:30.963Z,3.95
2022-08-16T13:55:59.560Z,4.75
2022-08-16T13:58:37.265Z,10.20
2022-08-16T14:01:21.067Z,6.47
2022-08-16T14:03:54.503Z,4.18
2022-08-16T14:06:21.920Z,4.38
2022-08-16T14:09:06.270Z,4.30
2022-08-16T14:11:34.497Z,7.20
2022-08-16T14:14:01.845Z,4.35
2022-08-16T14:16:34.096Z,4.25
2022-08-16T14:19:02.306Z,5.40
2022-08-16T14:21:35.548Z,6.03
2022-08-16T14:24:12.741Z,5.60
2022-08-16T14:26:51.076Z,4.43
2022-08-16T14:29:20.218Z,4.05
2022-08-16T14:31:53.641Z,4.53
2022-08-16T14:34:21.236Z,4.90
2022-08-16T14:36:53.065Z,4.78
2022-08-16T14:39:21.955Z,4.05
2022-08-16T14:41:49.053Z,4.15
2022-08-16T14:44:20.025Z,4.00
2022-08-16T14:46:48.661Z,5.57
2022-08-16T14:49:15.209Z,6.30
2022-08-16T14:51:46.101Z,4.28
2022-08-16T14:54:13.035Z,4.43
2022-08-16T14:56:43.286Z,4.25
2022-08-16T14:59:13.777Z,9.43
2022-08-16T15:01:58.062Z,8.43
2022-08-16T15:04:37.931Z,5.25
2022-08-16T15:07:10.805Z,4.43
2022-08-16T15:09:44.354Z,4.80
2022-08-16T15:12:33.664Z,4.15
2022-08-16T15:15:11.994Z,7.22
2022-08-16T15:17:40.153Z,5.70
2022-08-16T15:20:08.918Z,4.22
2022-08-16T15:22:43.028Z,4.22
2022-08-16T15:25:30.968Z,4.03
2022-08-16T15:28:00.819Z,4.15
2022-08-16T15:30:57.447Z,3.88
2022-08-16T15:33:27.289Z,7.07
2022-08-16T15:35:55.500Z,5.72
2022-08-16T15:38:55.323Z,4.20
2022-08-16T15:41:53.894Z,4.30
2022-08-16T15:44:23.967Z,4.65
2022-08-16T15:46:58.650Z,4.28
2022-08-16T15:49:37.346Z,4.43
2022-08-16T15:52:24.975Z,4.10
2022-08-16T15:54:57.175Z,3.83
2022-08-16T15:57:26.638Z,4.45
2022-08-16T15:59:56.309Z,4.68
2022-08-16T16:02:31.696Z,4.55
2022-08-16T16:05:09.493Z,4.97
2022-08-16T16:07:40.647Z,5.38
2022-08-16T16:10:13.374Z,5.40
2022-08-16T16:12:51.656Z,4.13
2022-08-16T16:15:24.374Z,4.55
2022-08-16T16:17:52.571Z,4.68
2022-08-16T16:20:27.589Z,5.82
2022-08-16T16:23:01.799Z,4.80
2022-08-16T16:25:30.627Z,5.45
2022-08-16T16:27:59.876Z,5.22
2022-08-16T16:30:38.189Z,5.30
2022-08-16T16:33:21.058Z,5.50
2022-08-16T16:35:56.453Z,5.35
2022-08-16T16:38:31.062Z,5.68
2022-08-16T16:41:00.272Z,4.07
2022-08-16T16:43:31.626Z,4.60
2022-08-16T16:45:59.193Z,5.07
2022-08-16T16:48:34.559Z,4.00
2022-08-16T16:51:09.550Z,4.57
2022-08-16T16:53:41.258Z,5.65
2022-08-16T16:56:10.448Z,4.97
2022-08-16T16:59:00.939Z,5.20
2022-08-16T17:01:56.757Z,5.40
2022-08-16T17:04:31.264Z,10.68
2022-08-16T17:06:59.444Z,4.80
2022-08-16T17:09:26.061Z,4.45
2022-08-16T17:11:55.092Z,4.30
2022-08-16T17:17:09.694Z,5.40
2022-08-16T17:19:40.980Z,4.70
2022-08-16T17:22:13.939Z,4.75
2022-08-16T17:24:50.818Z,4.60
2022-08-16T17:27:32.728Z,4.68
2022-08-16T17:30:15.914Z,5.00
2022-08-16T17:33:00.632Z,4.88
2022-08-16T17:35:37.558Z,4.30
2022-08-16T17:38:07.662Z,4.60
2022-08-16T17:39:28.819Z,4.47
2022-08-16T17:40:47.469Z,4.72
2022-08-16T17:43:27.520Z,4.75
2022-08-16T17:45:54.936Z,5.22
2022-08-16T17:48:21.628Z,5.13
2022-08-16T17:50:49.615Z,5.00
2022-08-16T17:53:22.151Z,5.20
2022-08-16T17:55:50.630Z,5.20
2022-08-16T17:58:22.749Z,4.90
2022-08-16T18:00:52.928Z,4.90
2022-08-16T18:04:06.937Z,6.82
2022-08-16T18:06:13.454Z,7.72
2022-08-16T18:08:41.546Z,6.28
2022-08-16T18:11:10.486Z,6.63
2022-08-16T18:13:42.929Z,6.68
2022-08-16T18:16:10.350Z,6.43
2022-08-16T18:18:37.293Z,7.15
2022-08-16T18:21:22.720Z,6.22
2022-08-16T18:23:49.503Z,8.75
2022-08-16T18:26:16.399Z,7.63
2022-08-16T18:28:43.284Z,7.25
2022-08-16T18:31:10.236Z,6.95
2022-08-16T18:33:43.688Z,6.47
2022-08-16T18:36:20.076Z,6.38
2022-08-16T18:38:49.680Z,5.95
2022-08-16T18:41:17.083Z,6.47
2022-08-16T18:44:23.787Z,6.85
2022-08-16T18:46:31.402Z,6.00
2022-08-16T18:48:57.963Z,5.95
2022-08-16T18:51:25.568Z,6.90
2022-08-16T18:53:55.297Z,6.65
2022-08-16T18:56:22.307Z,6.50
2022-08-16T18:58:48.944Z,6.15
2022-08-16T19:01:15.603Z,6.38
2022-08-16T19:03:42.333Z,6.18
2022-08-16T19:06:13.833Z,6.07
2022-08-16T19:08:43.570Z,5.88
2022-08-16T19:11:16.708Z,5.57
2022-08-16T19:13:44.330Z,6.13
2022-08-16T19:16:12.124Z,6.30
2022-08-16T19:18:39.110Z,5.97
2022-08-16T19:21:07.340Z,5.93
2022-08-16T19:23:37.303Z,6.40
2022-08-16T19:26:07.835Z,5.75
2022-08-16T19:28:50.896Z,6.10
2022-08-16T19:31:32.715Z,6.43
2022-08-16T19:34:00.369Z,6.82
2022-08-16T19:36:35.104Z,6.15
2022-08-16T19:39:10.255Z,5.72
2022-08-16T19:41:39.750Z,5.97
2022-08-16T19:44:06.824Z,6.00
2022-08-16T19:46:33.541Z,5.13
2022-08-16T19:49:00.269Z,5.63
2022-08-16T19:51:27.129Z,5.68
2022-08-16T19:53:54.365Z,6.63
2022-08-16T19:56:24.871Z,6.10
2022-08-16T19:59:18.819Z,5.85
2022-08-16T20:01:43.875Z,6.05
2022-08-16T20:04:12.706Z,6.03
2022-08-16T20:06:39.805Z,5.60
2022-08-16T20:09:06.870Z,5.72
2022-08-16T20:11:34.880Z,6.60
2022-08-16T20:14:02.021Z,6.20
2022-08-16T20:16:28.622Z,6.53
2022-08-16T20:18:55.371Z,7.03
2022-08-16T20:21:24.922Z,7.55
2022-08-16T20:24:01.267Z,6.88
2022-08-16T20:26:42.793Z,7.88
2022-08-16T20:29:09.508Z,7.45
2022-08-16T20:31:36.235Z,7.05
2022-08-16T20:34:02.883Z,7.18
2022-08-16T20:36:29.936Z,6.88
2022-08-16T20:38:57.963Z,6.35
2022-08-16T20:44:10.462Z,6.57
2022-08-16T20:46:39.980Z,6.47
2022-08-16T20:49:08.943Z,6.13
2022-08-16T20:51:49.568Z,7.47
2022-08-16T20:54:19.686Z,6.28
2022-08-16T20:56:46.727Z,7.13
2022-08-16T20:59:13.463Z,7.20
2022-08-16T21:01:46.577Z,6.30
2022-08-16T21:04:19.916Z,6.97
2022-08-16T21:06:53.999Z,6.47
2022-08-16T21:09:32.445Z,7.00
2022-08-16T21:12:01.830Z,6.80
2022-08-16T21:14:29.694Z,8.15
2022-08-16T21:17:01.361Z,9.25
2022-08-16T21:19:28.047Z,7.57
2022-08-16T21:21:56.636Z,11.65
2022-08-16T21:24:23.517Z,6.90
2022-08-16T21:26:55.880Z,6.30
2022-08-16T21:29:24.886Z,6.22
2022-08-16T21:31:52.241Z,6.63
2022-08-16T21:34:18.806Z,6.28
2022-08-16T21:36:46.305Z,6.38
2022-08-16T21:39:12.956Z,5.18
2022-08-16T21:41:39.646Z,5.75
2022-08-16T21:44:06.429Z,6.47
2022-08-16T21:46:33.957Z,5.68
2022-08-16T21:49:00.600Z,4.95
2022-08-16T21:51:29.372Z,4.70
2022-08-16T21:53:59.598Z,5.00
2022-08-16T21:56:26.236Z,4.50
2022-08-16T21:58:53.734Z,4.70
2022-08-16T22:01:24.086Z,4.75
2022-08-16T22:04:01.543Z,5.22
2022-08-16T22:06:39.139Z,4.20
2022-08-16T22:09:07.076Z,4.47
2022-08-16T22:11:33.696Z,3.72
2022-08-16T22:14:00.887Z,4.80
2022-08-16T22:16:31.478Z,5.28
2022-08-16T22:19:00.801Z,5.20
2022-08-16T22:21:30.859Z,4.85
2022-08-16T22:23:58.936Z,4.50
2022-08-16T22:26:30.460Z,4.68
2022-08-16T22:29:03.437Z,5.25
2022-08-16T22:31:33.758Z,4.95
2022-08-16T22:34:03.855Z,5.20
2022-08-16T22:36:33.865Z,4.35
2022-08-16T22:39:04.801Z,4.72
2022-08-16T22:41:32.860Z,4.78
2022-08-16T22:44:03.818Z,4.85
2022-08-16T22:46:34.936Z,4.07
2022-08-16T22:49:06.154Z,4.60
2022-08-16T22:51:33.348Z,4.35
2022-08-16T22:54:05.856Z,4.50
2022-08-16T22:56:48.854Z,4.28
2022-08-16T22:59:15.457Z,4.20
2022-08-16T23:01:42.215Z,3.78
2022-08-16T23:04:08.823Z,4.78
2022-08-16T23:06:35.368Z,4.25
2022-08-16T23:09:02.742Z,4.45
2022-08-16T23:11:29.418Z,3.78
2022-08-16T23:13:56.699Z,3.80
2022-08-16T23:16:32.196Z,3.95
2022-08-16T23:19:06.237Z,4.20
2022-08-16T23:21:35.020Z,4.43
2022-08-16T23:24:04.742Z,4.35
2022-08-16T23:26:43.881Z,4.65
2022-08-16T23:29:22.079Z,4.20
2022-08-16T23:31:53.922Z,3.40
2022-08-16T23:34:22.510Z,6.28
2022-08-16T23:36:49.104Z,4.43
2022-08-16T23:39:15.682Z,4.43
2022-08-16T23:41:43.857Z,4.57
2022-08-16T23:44:56.699Z,3.55
2022-08-16T23:46:57.298Z,4.47
2022-08-16T23:49:58.780Z,4.25
2022-08-16T23:52:10.882Z,3.67
2022-08-16T23:54:37.554Z,3.80
2022-08-16T23:57:08.431Z,4.60
2022-08-16T23:59:52.692Z,4.03
